Gifford, Kentucky
Current Conditions -  °F | °C
As of 5:53 PM on Sunday 21 Dec 2014 (Local Time) from KJKL Reporting Station
Clear Clear  
Wind Chill: 36°   Ceiling: Unl
Heat Index: 39°   Visibility: 10mi
Dew Point: 25°   Wind: 5mph
Humidity: 57%   Direction: 40°NE
Pressure: 30.13"   Gusts: NA
Location:  37.7261°N, 83.0786°W
Report Text: KJKL 212253Z AUTO 04004KT 10SM CLR 04/M04 A3013 RMK AO2 SLP213 T00391039
Loading
Personal Weather Stations






























Interactive Weather Map New forecast layout! Learn more

10-Day Weather Forecast

Advertisements
Track Severe Weather on mobile